createdAt,value
2022-08-23T06:14:06.239Z,79.23
2022-08-23T06:24:06.282Z,73.25
2022-08-23T06:34:06.271Z,72.86
2022-08-23T06:44:06.271Z,68.21
2022-08-23T06:54:06.162Z,68.30
2022-08-23T07:04:06.281Z,64.53
2022-08-23T07:14:06.334Z,61.77
2022-08-23T07:24:06.390Z,60.72
2022-08-23T07:34:06.235Z,59.49
2022-08-23T07:44:06.310Z,57.32
2022-08-23T07:54:06.285Z,54.56
2022-08-23T08:04:06.267Z,52.20
2022-08-23T08:14:06.219Z,51.29
2022-08-23T08:24:06.284Z,50.12
2022-08-23T08:34:06.439Z,50.00
2022-08-23T08:44:06.581Z,48.06
2022-08-23T08:54:06.492Z,47.33
2022-08-23T09:04:06.524Z,47.15
2022-08-23T09:14:06.399Z,46.83
2022-08-23T09:24:06.598Z,46.52
2022-08-23T09:34:06.753Z,47.21
2022-08-23T09:44:06.680Z,45.76
2022-08-23T09:54:06.542Z,45.48
2022-08-23T10:04:06.711Z,45.92
2022-08-23T10:14:06.484Z,45.25
2022-08-23T10:24:06.397Z,44.37
2022-08-23T10:34:06.441Z,42.83
2022-08-23T10:44:06.425Z,42.58
2022-08-23T10:54:06.495Z,41.47
2022-08-23T11:04:06.476Z,41.56
2022-08-23T11:14:06.560Z,42.28
2022-08-23T11:24:06.454Z,41.22
2022-08-23T11:34:06.524Z,41.71
2022-08-23T11:44:06.588Z,39.79
2022-08-23T11:54:06.423Z,40.44
2022-08-23T12:04:06.809Z,40.52
2022-08-23T12:14:06.618Z,40.19
2022-08-23T12:24:06.564Z,39.40
2022-08-23T12:34:06.664Z,38.77
2022-08-23T12:44:07.020Z,38.10
2022-08-23T12:54:07.127Z,38.43
2022-08-23T13:04:07.195Z,36.85
2022-08-23T13:14:07.201Z,38.68
2022-08-23T13:24:07.425Z,36.97
2022-08-23T13:34:07.501Z,37.45
2022-08-23T13:44:07.261Z,37.60
2022-08-23T13:54:07.242Z,36.72
2022-08-23T14:04:07.814Z,37.77
2022-08-23T14:14:07.518Z,37.53
2022-08-23T14:24:07.220Z,37.05
2022-08-23T14:34:07.602Z,37.22
2022-08-23T14:44:07.299Z,37.10
2022-08-23T14:54:07.219Z,37.28
2022-08-23T15:04:07.327Z,36.78
2022-08-23T15:14:07.304Z,36.75
2022-08-23T15:24:07.468Z,36.46
2022-08-23T15:34:07.397Z,36.25
2022-08-23T15:44:07.503Z,36.13
2022-08-23T15:54:07.590Z,35.50
2022-08-23T16:04:07.374Z,36.07
2022-08-23T16:14:07.568Z,35.66
2022-08-23T16:24:07.416Z,35.55
2022-08-23T16:34:07.575Z,35.50
2022-08-23T16:44:07.457Z,35.33
2022-08-23T16:54:07.439Z,36.31
2022-08-23T17:04:07.454Z,36.20
2022-08-23T17:14:07.472Z,36.25
2022-08-23T17:24:07.575Z,36.85
2022-08-23T17:34:07.511Z,38.94
2022-08-23T17:44:07.451Z,39.93
2022-08-23T17:54:07.560Z,41.10
2022-08-23T18:04:07.634Z,42.67
2022-08-23T18:14:07.591Z,43.68
2022-08-23T18:24:07.613Z,44.79
2022-08-23T18:34:07.747Z,46.09
2022-08-23T18:44:07.451Z,46.85
2022-08-23T18:54:07.621Z,47.54
2022-08-23T19:04:07.690Z,48.17
2022-08-23T19:14:07.801Z,48.37
